Time;durP1;ratioP1;P1;durP2;ratioP2;P2;SDS_P1;SDS_P2;PMS_P1;PMS_P2;Temp;Humidity;BMP_temperature;BMP_pressure;BME280_temperature;BME280_humidity;BME280_pressure;Samples;Min_cycle;Max_cycle;Signal;HPM_P1;HPM_P2
2023/04/13 00:00:25;;;;;;;10.15;7.00;;;;;;;11.51;48.60;97809.47;5066180;28;20131;-70
2023/04/13 00:02:54;;;;;;;10.23;7.15;;;;;;;11.52;48.59;97813.81;5066219;28;20072;-70
2023/04/13 00:05:23;;;;;;;9.63;6.88;;;;;;;11.51;48.83;97809.47;5066061;28;20049;-70
2023/04/13 00:07:50;;;;;;;12.73;6.90;;;;;;;11.40;48.84;97789.13;5066091;28;20091;-70
2023/04/13 00:10:19;;;;;;;11.40;7.13;;;;;;;11.48;48.93;97802.59;5066056;28;20315;-70
2023/04/13 00:12:47;;;;;;;12.80;7.60;;;;;;;11.51;48.94;97804.16;5064936;28;20205;-70
2023/04/13 00:15:15;;;;;;;12.90;7.55;;;;;;;11.52;48.89;97803.19;5065722;28;20229;-70
2023/04/13 00:17:42;;;;;;;13.20;7.68;;;;;;;11.52;48.96;97803.19;5065877;28;20045;-69
2023/04/13 00:20:12;;;;;;;11.35;7.43;;;;;;;11.35;49.12;97778.06;5065673;28;20078;-71
2023/04/13 00:22:41;;;;;;;9.55;6.63;;;;;;;11.31;48.92;97787.25;5065927;28;20041;-70
2023/04/13 00:25:09;;;;;;;7.97;6.50;;;;;;;11.32;49.14;97774.81;5066071;28;20036;-70
2023/04/13 00:27:37;;;;;;;9.05;6.45;;;;;;;11.17;49.32;97803.47;5066088;28;20051;-70
2023/04/13 00:30:06;;;;;;;9.75;6.90;;;;;;;11.47;49.37;97798.28;5065265;28;20301;-70
2023/04/13 00:32:33;;;;;;;9.07;5.78;;;;;;;11.47;49.46;97797.44;5065795;28;20166;-70
2023/04/13 00:34:59;;;;;;;9.40;6.72;;;;;;;11.45;49.55;97804.66;5065706;28;20103;-69
2023/04/13 00:37:28;;;;;;;7.53;5.43;;;;;;;11.42;49.63;97795.16;5065707;28;20045;-70
2023/04/13 00:39:56;;;;;;;9.60;5.18;;;;;;;11.42;49.63;97799.63;5065948;28;20248;-70
2023/04/13 00:42:24;;;;;;;6.80;5.32;;;;;;;11.40;49.82;97806.88;5065376;28;20056;-71
2023/04/13 00:44:52;;;;;;;13.10;6.40;;;;;;;10.97;50.09;97738.81;5065841;28;20057;-70
2023/04/13 00:47:25;;;;;;;9.57;6.57;;;;;;;11.36;50.28;97808.09;5065605;28;20294;-71
2023/04/13 00:49:52;;;;;;;8.88;6.13;;;;;;;11.38;50.05;97811.44;5065003;28;20128;-70
2023/04/13 00:52:20;;;;;;;7.63;5.28;;;;;;;11.19;50.06;97788.25;5065539;28;20193;-70
2023/04/13 00:54:47;;;;;;;7.03;5.85;;;;;;;11.40;49.99;97817.47;5065635;28;20192;-70
2023/04/13 00:57:15;;;;;;;8.80;5.25;;;;;;;11.37;50.07;97810.63;5065577;28;20065;-69
2023/04/13 00:59:43;;;;;;;6.10;4.47;;;;;;;11.37;50.23;97807.97;5065757;28;20051;-70
2023/04/13 01:02:09;;;;;;;7.65;5.25;;;;;;;11.36;50.33;97814.22;5065843;28;20041;-70
2023/04/13 01:04:37;;;;;;;10.55;5.82;;;;;;;11.37;50.34;97815.06;5065466;28;20116;-70
2023/04/13 01:07:11;;;;;;;8.80;6.28;;;;;;;11.35;50.71;97823.16;5065347;28;20300;-70
2023/04/13 01:09:42;;;;;;;9.23;5.57;;;;;;;11.13;51.06;97783.47;5065438;28;20045;-70
2023/04/13 01:12:13;;;;;;;10.35;6.00;;;;;;;11.36;50.89;97821.34;5065759;28;20037;-70
2023/04/13 01:14:48;;;;;;;9.15;5.53;;;;;;;11.31;51.58;97816.41;5065327;28;20044;-70
2023/04/13 01:17:21;;;;;;;7.30;5.45;;;;;;;11.29;51.23;97825.47;5065670;28;20067;-70
2023/04/13 01:19:52;;;;;;;9.27;6.20;;;;;;;11.28;51.12;97819.31;5065017;28;20068;-70
2023/04/13 01:22:22;;;;;;;8.95;6.22;;;;;;;11.28;51.23;97832.59;5065265;28;20196;-69
2023/04/13 01:25:08;;;;;;;7.97;6.25;;;;;;;11.27;52.21;97824.75;5064983;28;20071;-70
2023/04/13 01:27:47;;;;;;;9.20;5.82;;;;;;;11.08;52.56;97801.56;5065205;28;20045;-70
2023/04/13 01:30:17;;;;;;;8.57;6.45;;;;;;;11.26;51.11;97826.56;5064632;28;20041;-70
2023/04/13 01:32:45;;;;;;;11.77;6.57;;;;;;;11.26;51.25;97829.22;5065133;28;20052;-70
2023/04/13 01:35:11;;;;;;;10.32;6.35;;;;;;;11.27;51.41;97853.94;5065150;28;20324;-70
2023/04/13 01:37:38;;;;;;;8.13;5.80;;;;;;;11.24;51.59;97857.69;5064867;28;20056;-70
2023/04/13 01:40:10;;;;;;;6.88;5.13;;;;;;;11.21;51.72;97864.06;5065078;28;20204;-70
2023/04/13 01:42:37;;;;;;;6.80;5.45;;;;;;;11.18;51.75;97866.13;5067443;28;20276;-70
2023/04/13 01:45:11;;;;;;;7.60;5.28;;;;;;;11.19;52.38;97863.34;5068422;28;20040;-70
2023/04/13 01:47:41;;;;;;;7.18;4.85;;;;;;;11.17;52.35;97859.97;5068448;28;20044;-70
2023/04/13 01:50:15;;;;;;;6.22;4.35;;;;;;;11.16;53.29;97860.94;5068884;28;20044;-69
2023/04/13 01:52:43;;;;;;;4.95;3.42;;;;;;;11.16;52.41;97862.75;5068622;28;20339;-69
2023/04/13 01:55:12;;;;;;;4.05;3.08;;;;;;;11.17;52.73;97865.28;5068586;28;20063;-68
2023/04/13 01:57:46;;;;;;;4.32;3.15;;;;;;;11.16;53.14;97860.09;5068230;28;20041;-69
2023/04/13 02:00:17;;;;;;;4.55;3.00;;;;;;;11.11;53.75;97854.34;5068433;28;20048;-69
2023/04/13 02:02:44;;;;;;;5.05;2.65;;;;;;;11.11;53.68;97855.19;5068386;28;20041;-69
2023/04/13 02:05:11;;;;;;;3.33;2.40;;;;;;;11.13;54.27;97857.69;5067995;28;20037;-70
2023/04/13 02:07:40;;;;;;;5.30;3.17;;;;;;;11.10;54.78;97852.66;5068067;28;20201;-70
2023/04/13 02:10:08;;;;;;;4.60;2.70;;;;;;;11.08;55.04;97850.13;5068222;28;20052;-69
2023/04/13 02:12:34;;;;;;;4.32;2.88;;;;;;;11.07;55.69;97851.09;5067823;28;20323;-70
2023/04/13 02:15:01;;;;;;;4.20;2.85;;;;;;;11.06;56.08;97845.91;5068290;28;20044;-70
2023/04/13 02:17:29;;;;;;;6.55;2.95;;;;;;;10.69;56.40;97779.94;5068137;28;20064;-71
2023/04/13 02:19:57;;;;;;;3.95;3.15;;;;;;;10.98;56.63;97833.28;5067779;28;20110;-71
2023/04/13 02:22:24;;;;;;;4.32;3.00;;;;;;;11.01;57.06;97845.44;5067738;28;20048;-71
2023/04/13 02:24:51;;;;;;;4.05;2.95;;;;;;;11.01;57.64;97848.09;5067998;28;20048;-71
2023/04/13 02:27:17;;;;;;;4.18;2.55;;;;;;;11.01;57.80;97853.41;5067866;28;20045;-71
2023/04/13 02:29:44;;;;;;;3.95;2.70;;;;;;;11.01;58.04;97840.97;5067645;28;20056;-71
2023/04/13 02:32:11;;;;;;;3.70;2.80;;;;;;;11.01;58.33;97850.75;5067636;28;20189;-71
2023/04/13 02:34:39;;;;;;;4.07;2.80;;;;;;;10.96;58.79;97844.97;5068167;28;20096;-70
2023/04/13 02:37:08;;;;;;;5.15;3.17;;;;;;;10.90;58.81;97838.34;5067772;28;20037;-71
2023/04/13 02:39:34;;;;;;;4.32;3.38;;;;;;;10.97;59.11;97846.66;5067726;28;20208;-71
2023/04/13 02:42:02;;;;;;;6.97;3.45;;;;;;;10.94;59.96;97842.44;5067267;28;20057;-71
2023/04/13 02:44:29;;;;;;;6.50;3.80;;;;;;;10.94;60.06;97847.75;5067368;28;20238;-70
2023/04/13 02:46:55;;;;;;;5.35;3.75;;;;;;;10.95;59.94;97851.22;5067859;28;20033;-71
2023/04/13 02:49:22;;;;;;;3.60;3.22;;;;;;;10.96;60.26;97842.31;5067513;28;20311;-70
2023/04/13 02:51:51;;;;;;;5.57;4.07;;;;;;;10.93;61.08;97859.31;5067518;28;20292;-70
2023/04/13 02:54:17;;;;;;;6.43;4.30;;;;;;;10.91;61.38;97858.59;5067642;28;20059;-71
2023/04/13 02:56:44;;;;;;;6.93;5.05;;;;;;;10.88;61.68;97854.38;5067131;28;20100;-71
2023/04/13 02:59:10;;;;;;;4.80;3.97;;;;;;;10.69;61.81;97830.28;5067639;28;20116;-71
2023/04/13 03:01:38;;;;;;;5.78;4.43;;;;;;;10.83;61.71;97851.25;5067069;28;20036;-71
2023/04/13 03:04:05;;;;;;;6.80;4.88;;;;;;;10.16;61.96;97749.78;5067261;28;20330;-71
2023/04/13 03:06:32;;;;;;;6.13;5.53;;;;;;;10.81;62.37;97850.53;5066919;28;20067;-70
2023/04/13 03:09:00;;;;;;;5.95;4.95;;;;;;;10.78;62.51;97863.19;5067990;28;20185;-70
2023/04/13 03:11:27;;;;;;;5.60;4.82;;;;;;;10.77;62.44;97869.41;5066819;28;20087;-71
2023/04/13 03:13:57;;;;;;;5.10;4.60;;;;;;;10.71;62.85;97878.69;5067047;28;20192;-70
2023/04/13 03:16:23;;;;;;;6.88;5.90;;;;;;;10.70;62.87;97881.47;5067010;28;20108;-70
2023/04/13 03:18:51;;;;;;;6.70;5.68;;;;;;;10.69;63.18;97885.06;5066916;28;20201;-70
2023/04/13 03:21:18;;;;;;;7.00;5.90;;;;;;;10.63;63.73;97877.63;5066607;28;20049;-71
2023/04/13 03:23:44;;;;;;;7.13;5.38;;;;;;;10.59;63.98;97882.31;5066855;28;20240;-70
2023/04/13 03:26:12;;;;;;;7.68;5.43;;;;;;;10.55;64.17;97884.34;5066563;28;20040;-71
2023/04/13 03:28:39;;;;;;;6.13;5.00;;;;;;;10.56;64.20;97880.75;5066600;28;20098;-71
2023/04/13 03:31:06;;;;;;;6.60;5.45;;;;;;;10.56;63.84;97883.38;5067032;28;20041;-71
2023/04/13 03:33:32;;;;;;;6.53;5.60;;;;;;;10.57;64.15;97885.06;5066619;28;20045;-71
2023/04/13 03:35:59;;;;;;;6.57;5.95;;;;;;;10.55;64.60;97896.75;5066620;28;20040;-71
2023/04/13 03:38:26;;;;;;;6.70;5.93;;;;;;;10.52;65.25;97894.34;5066540;28;20045;-70
2023/04/13 03:40:52;;;;;;;7.28;6.00;;;;;;;10.53;64.86;97902.19;5066816;28;20044;-71
2023/04/13 03:43:20;;;;;;;6.07;5.40;;;;;;;10.54;65.35;97906.50;5066202;28;20259;-71
2023/04/13 03:45:47;;;;;;;5.55;5.00;;;;;;;10.52;65.63;97904.94;5066372;28;20036;-71
2023/04/13 03:48:14;;;;;;;5.25;4.75;;;;;;;10.52;65.00;97907.59;5066044;28;20060;-71
2023/04/13 03:50:41;;;;;;;6.82;4.63;;;;;;;9.32;65.60;97709.50;5066633;28;20111;-71
2023/04/13 03:53:07;;;;;;;5.60;5.00;;;;;;;10.48;65.73;97916.75;5066171;28;20037;-70
2023/04/13 03:55:34;;;;;;;4.97;4.45;;;;;;;10.47;65.89;97920.34;5066570;28;20037;-71
2023/04/13 03:58:01;;;;;;;6.25;5.07;;;;;;;10.35;65.87;97908.91;5066298;28;20037;-71
2023/04/13 04:00:29;;;;;;;6.40;4.70;;;;;;;10.47;66.13;97931.78;5065923;28;20086;-71
2023/04/13 04:02:56;;;;;;;5.32;4.70;;;;;;;10.47;65.64;97941.53;5065904;28;20044;-71
2023/04/13 04:05:23;;;;;;;5.38;4.22;;;;;;;10.50;65.81;97936.00;5065639;28;20308;-71
2023/04/13 04:07:49;;;;;;;5.68;4.70;;;;;;;10.51;65.96;97949.13;5065778;28;20040;-71
2023/04/13 04:10:18;;;;;;;5.28;4.75;;;;;;;10.50;66.36;97944.78;5066003;28;20044;-71
2023/04/13 04:12:44;;;;;;;6.38;4.30;;;;;;;10.52;65.91;97945.53;5065732;28;20051;-70
2023/04/13 04:15:11;;;;;;;5.32;4.82;;;;;;;10.53;66.36;98012.59;5065931;28;20048;-70
2023/04/13 04:17:39;;;;;;;5.50;4.40;;;;;;;10.51;66.56;97949.13;5065950;28;20040;-70
2023/04/13 04:20:08;;;;;;;6.93;3.90;;;;;;;10.49;66.41;97951.06;5065589;28;20201;-70
2023/04/13 04:22:35;;;;;;;5.20;4.05;;;;;;;10.50;66.92;97955.41;5066104;28;20269;-71
2023/04/13 04:25:03;;;;;;;4.32;3.70;;;;;;;10.48;66.67;97954.66;5065537;28;20047;-71
2023/04/13 04:27:36;;;;;;;4.57;3.72;;;;;;;10.50;66.57;97955.41;5066250;28;20056;-70
2023/04/13 04:30:04;;;;;;;6.05;4.28;;;;;;;10.28;67.38;97924.41;5065485;28;20342;-71
2023/04/13 04:32:32;;;;;;;5.70;4.28;;;;;;;10.46;67.54;97958.38;5065919;28;20049;-71
2023/04/13 04:35:02;;;;;;;4.05;3.58;;;;;;;10.47;67.60;97966.22;5065465;28;20041;-70
2023/04/13 04:37:36;;;;;;;6.45;3.60;;;;;;;10.49;67.10;97958.16;5065960;28;20079;-71
2023/04/13 04:40:06;;;;;;;5.57;4.15;;;;;;;10.48;67.59;97972.38;5065388;28;20259;-71
2023/04/13 04:42:33;;;;;;;7.63;4.00;;;;;;;10.49;67.49;97966.94;5065297;28;20376;-72
2023/04/13 04:45:00;;;;;;;5.65;3.15;;;;;;;10.51;67.50;97961.53;5065341;28;20037;-71
2023/04/13 04:47:29;;;;;;;6.65;3.80;;;;;;;10.51;67.71;97965.03;5065488;28;20178;-71
2023/04/13 04:49:56;;;;;;;4.80;3.25;;;;;;;10.51;67.74;97965.03;5065282;28;20048;-71
2023/04/13 04:52:25;;;;;;;3.55;2.70;;;;;;;10.51;68.02;97964.19;5065772;28;20048;-71
2023/04/13 04:54:52;;;;;;;4.47;3.20;;;;;;;10.48;67.86;97967.91;5065245;28;20037;-71
2023/04/13 04:57:19;;;;;;;5.40;3.00;;;;;;;10.48;67.90;97969.72;5065388;28;20041;-71
2023/04/13 04:59:48;;;;;;;4.63;3.53;;;;;;;10.48;68.23;97977.66;5065148;28;20205;-71
2023/04/13 05:02:14;;;;;;;5.22;3.42;;;;;;;10.48;68.20;97982.97;5065438;28;20083;-70
2023/04/13 05:04:41;;;;;;;4.95;3.28;;;;;;;10.48;68.42;97998.84;5065325;28;20106;-70
2023/04/13 05:07:09;;;;;;;4.55;3.10;;;;;;;10.49;68.49;98000.53;5065248;28;20201;-71
2023/04/13 05:09:37;;;;;;;4.20;3.30;;;;;;;10.31;68.61;97976.28;5065070;28;20053;-71
2023/04/13 05:12:05;;;;;;;3.70;2.85;;;;;;;10.49;68.63;98008.47;5065333;28;20047;-71
2023/04/13 05:14:31;;;;;;;4.28;3.00;;;;;;;10.48;68.56;98004.16;5065264;28;20036;-71
2023/04/13 05:16:58;;;;;;;5.13;2.53;;;;;;;10.46;68.43;98012.22;5066878;28;20052;-71
2023/04/13 05:19:25;;;;;;;3.30;2.28;;;;;;;10.46;68.40;98017.50;5069236;28;20052;-71
2023/04/13 05:21:51;;;;;;;4.70;2.85;;;;;;;10.46;68.03;98028.09;5069294;28;20111;-72
2023/04/13 05:24:18;;;;;;;8.85;2.92;;;;;;;10.44;68.39;98024.72;5068672;28;20098;-72
2023/04/13 05:26:46;;;;;;;3.67;2.53;;;;;;;10.44;67.96;98022.06;5068894;28;20041;-71
2023/04/13 05:29:12;;;;;;;3.17;2.30;;;;;;;10.44;68.06;98018.59;5069120;28;20104;-71
2023/04/13 05:31:39;;;;;;;3.17;2.17;;;;;;;10.43;67.87;98028.34;5069536;28;20190;-72
2023/04/13 05:34:06;;;;;;;3.70;2.40;;;;;;;10.40;67.71;98031.22;5069209;28;20343;-72
2023/04/13 05:36:32;;;;;;;3.80;1.83;;;;;;;10.38;67.83;98025.19;5068722;28;20043;-71
2023/04/13 05:39:00;;;;;;;3.70;2.45;;;;;;;9.95;67.85;97959.56;5069074;28;20060;-71
2023/04/13 05:41:27;;;;;;;3.33;2.10;;;;;;;10.37;67.92;98036.75;5068731;28;20068;-71
2023/04/13 05:43:55;;;;;;;3.50;2.15;;;;;;;10.38;67.84;98034.94;5068308;28;20084;-72
2023/04/13 05:46:21;;;;;;;3.17;2.22;;;;;;;10.37;67.81;98046.50;5068746;28;20052;-72
2023/04/13 05:48:48;;;;;;;4.35;2.63;;;;;;;10.36;67.72;98036.84;5068660;28;20045;-72
2023/04/13 05:51:15;;;;;;;4.32;2.20;;;;;;;9.96;67.99;97973.66;5068948;28;20045;-72
2023/04/13 05:53:41;;;;;;;4.30;2.40;;;;;;;10.33;67.58;98045.88;5067815;28;20052;-72
2023/04/13 05:56:09;;;;;;;4.10;2.65;;;;;;;10.34;67.79;98046.72;5068201;28;20045;-72
2023/04/13 05:58:36;;;;;;;4.93;2.70;;;;;;;9.34;67.71;97893.63;5068444;28;20295;-73
2023/04/13 06:01:04;;;;;;;5.20;2.72;;;;;;;10.12;67.67;98016.56;5068353;28;20064;-72
2023/04/13 06:03:31;;;;;;;3.50;2.20;;;;;;;10.31;67.82;98058.38;5068431;28;20036;-72
2023/04/13 06:05:58;;;;;;;4.30;2.33;;;;;;;10.28;67.82;98055.97;5068057;28;20041;-72
2023/04/13 06:08:31;;;;;;;4.40;2.50;;;;;;;9.94;67.76;97994.09;5068133;28;20041;-72
2023/04/13 06:10:57;;;;;;;5.60;3.28;;;;;;;10.27;67.76;98056.94;5068497;28;20037;-73
2023/04/13 06:13:24;;;;;;;3.75;2.33;;;;;;;10.27;67.82;98064.88;5068033;28;20044;-72
2023/04/13 06:15:51;;;;;;;5.05;2.40;;;;;;;10.28;67.68;98062.09;5068122;28;20209;-72
2023/04/13 06:18:19;;;;;;;3.63;2.55;;;;;;;10.26;68.08;98071.97;5067858;28;20033;-71
2023/04/13 06:20:46;;;;;;;5.38;2.65;;;;;;;10.26;68.02;98068.47;5067900;28;20041;-71
2023/04/13 06:23:13;;;;;;;4.57;2.90;;;;;;;10.25;67.97;98072.94;5068269;28;20053;-72
2023/04/13 06:25:39;;;;;;;5.93;3.33;;;;;;;10.27;67.82;98078.97;5067801;28;20204;-72
2023/04/13 06:28:06;;;;;;;9.00;4.70;;;;;;;9.56;67.92;97967.81;5067498;28;20041;-72
2023/04/13 06:30:33;;;;;;;6.03;4.05;;;;;;;10.27;67.89;98086.06;5067875;28;20047;-72
2023/04/13 06:32:59;;;;;;;6.05;3.00;;;;;;;10.26;67.98;98077.25;5067772;28;20052;-72
2023/04/13 06:35:29;;;;;;;3.42;2.25;;;;;;;10.24;68.19;98080.97;5067732;28;20033;-72
2023/04/13 06:37:57;;;;;;;3.13;1.88;;;;;;;10.21;68.63;98083.84;5067763;28;20095;-72
2023/04/13 06:40:24;;;;;;;2.80;1.83;;;;;;;10.19;68.43;98083.97;5068092;28;20351;-72
2023/04/13 06:42:51;;;;;;;3.70;2.03;;;;;;;10.18;68.35;98077.00;5067361;28;20198;-72
2023/04/13 06:45:19;;;;;;;3.95;1.88;;;;;;;10.17;68.47;98082.41;5067584;28;20216;-72
2023/04/13 06:47:46;;;;;;;2.70;1.77;;;;;;;10.15;68.25;98086.97;5067756;28;20376;-72
2023/04/13 06:50:14;;;;;;;3.60;2.47;;;;;;;10.15;68.39;98100.19;5067306;28;20102;-72
2023/04/13 06:52:43;;;;;;;2.75;1.70;;;;;;;10.13;68.48;98096.81;5067730;28;20044;-72
2023/04/13 06:55:10;;;;;;;2.63;1.83;;;;;;;10.14;67.78;98103.81;5067097;28;20044;-72
2023/04/13 06:57:37;;;;;;;3.20;1.55;;;;;;;10.09;67.82;98112.06;5068024;28;20212;-72
2023/04/13 07:00:05;;;;;;;2.60;1.40;;;;;;;10.09;67.79;98113.88;5067149;28;20036;-72
2023/04/13 07:02:31;;;;;;;2.28;1.52;;;;;;;10.03;67.08;98116.97;5067282;28;20043;-71
2023/04/13 07:04:58;;;;;;;2.40;1.48;;;;;;;10.01;67.16;98113.59;5067052;28;20079;-72
2023/04/13 07:07:25;;;;;;;2.35;1.40;;;;;;;10.01;67.21;98111.78;5067319;28;20045;-72
2023/04/13 07:09:53;;;;;;;2.15;1.60;;;;;;;10.01;67.25;98127.66;5066788;28;20040;-72
2023/04/13 07:12:20;;;;;;;2.50;1.50;;;;;;;10.00;67.18;98125.13;5067173;28;20044;-72
2023/04/13 07:14:48;;;;;;;2.35;1.50;;;;;;;9.45;66.92;98044.44;5067006;28;20040;-72
2023/04/13 07:17:15;;;;;;;2.67;1.60;;;;;;;10.01;67.53;98137.41;5066628;28;20036;-72
2023/04/13 07:19:45;;;;;;;2.30;1.45;;;;;;;10.02;67.86;98133.81;5067037;28;20206;-72
2023/04/13 07:22:12;;;;;;;2.53;1.50;;;;;;;10.01;67.30;98127.66;5066939;28;20045;-71
2023/04/13 07:24:38;;;;;;;2.67;1.55;;;;;;;10.02;67.61;98125.88;5067152;28;20057;-72
2023/04/13 07:27:06;;;;;;;3.33;2.30;;;;;;;9.79;67.91;98096.63;5066341;28;20204;-72
2023/04/13 07:29:33;;;;;;;2.00;1.30;;;;;;;9.78;67.62;98105.50;5066942;28;20052;-71
2023/04/13 07:32:02;;;;;;;3.65;1.92;;;;;;;9.95;68.23;98139.53;5066395;28;20037;-71
2023/04/13 07:34:29;;;;;;;4.35;2.42;;;;;;;9.83;68.07;98113.13;5066598;28;20043;-72
2023/04/13 07:36:56;;;;;;;2.72;1.70;;;;;;;9.96;68.27;98140.38;5066718;28;20040;-72
2023/04/13 07:39:22;;;;;;;2.13;1.52;;;;;;;9.92;68.44;98139.75;5065775;28;20045;-72
2023/04/13 07:41:50;;;;;;;2.15;1.50;;;;;;;9.39;68.47;98050.97;5066161;28;20045;-72
2023/04/13 07:44:18;;;;;;;2.85;1.67;;;;;;;9.85;68.35;98125.28;5066472;28;20201;-72
2023/04/13 07:46:44;;;;;;;2.60;1.73;;;;;;;9.95;68.62;98150.13;5066126;28;20119;-72
2023/04/13 07:49:11;;;;;;;2.90;1.70;;;;;;;9.96;68.71;98148.31;5066665;28;20217;-72
2023/04/13 07:51:38;;;;;;;2.80;2.05;;;;;;;9.98;68.62;98140.28;5065895;28;20053;-72
2023/04/13 07:54:05;;;;;;;3.63;1.98;;;;;;;9.97;69.00;98144.72;5066591;28;20055;-72
2023/04/13 07:56:31;;;;;;;2.72;1.77;;;;;;;10.00;68.90;98149.81;5066312;28;20258;-72
2023/04/13 07:58:58;;;;;;;2.67;1.77;;;;;;;10.03;68.96;98146.09;5065948;28;20041;-72
2023/04/13 08:01:26;;;;;;;2.75;1.58;;;;;;;10.03;69.00;98146.09;5065872;28;20045;-72
2023/04/13 08:03:53;;;;;;;2.95;1.67;;;;;;;10.03;69.08;98156.69;5066306;28;20069;-72
2023/04/13 08:06:21;;;;;;;2.30;1.40;;;;;;;9.95;68.94;98149.28;5066259;28;20201;-72
2023/04/13 08:08:47;;;;;;;2.72;1.40;;;;;;;9.91;69.00;98151.31;5064808;28;20060;-72
2023/04/13 08:11:14;;;;;;;3.42;1.75;;;;;;;9.86;69.02;98158.72;5065658;28;20098;-72
2023/04/13 08:13:41;;;;;;;2.40;1.50;;;;;;;9.81;68.95;98168.78;5065746;28;20045;-72
2023/04/13 08:16:08;;;;;;;3.35;1.90;;;;;;;9.79;68.80;98165.41;5065811;28;20064;-72
2023/04/13 08:18:37;;;;;;;2.50;1.88;;;;;;;9.77;69.13;98171.75;5065782;28;20226;-72
2023/04/13 08:21:09;;;;;;;3.50;1.85;;;;;;;9.75;69.49;98171.88;5065977;28;20046;-72
2023/04/13 08:23:37;;;;;;;2.38;1.40;;;;;;;9.74;69.21;98172.81;5064484;28;20045;-72
2023/04/13 08:26:04;;;;;;;2.35;1.50;;;;;;;9.69;69.11;98172.31;5065466;28;20045;-72
2023/04/13 08:28:31;;;;;;;2.40;1.40;;;;;;;8.87;68.94;98036.09;5065587;28;20036;-72
2023/04/13 08:30:58;;;;;;;2.38;1.42;;;;;;;9.53;69.09;98140.78;5065759;28;20079;-72
2023/04/13 08:33:25;;;;;;;2.47;1.60;;;;;;;9.69;69.20;98174.09;5065588;28;20293;-72
2023/04/13 08:35:53;;;;;;;2.65;1.67;;;;;;;9.69;69.12;98160.88;5065451;28;20056;-72
2023/04/13 08:38:19;;;;;;;2.63;1.65;;;;;;;9.54;69.27;98145.13;5065528;28;20047;-71
2023/04/13 08:40:47;;;;;;;2.95;1.80;;;;;;;9.44;69.05;98127.38;5065592;28;20204;-72
2023/04/13 08:43:14;;;;;;;2.90;1.70;;;;;;;9.66;69.31;98164.59;5065054;28;20052;-72
2023/04/13 08:45:42;;;;;;;2.65;1.70;;;;;;;9.67;69.13;98168.06;5065177;28;20040;-72
2023/04/13 08:48:11;;;;;;;2.47;1.70;;;;;;;9.72;69.24;98169.44;5065547;28;20110;-72
2023/04/13 08:50:38;;;;;;;2.58;1.77;;;;;;;9.71;69.08;98158.97;5066872;28;20037;-72
2023/04/13 08:53:06;;;;;;;3.45;1.70;;;;;;;9.72;69.07;98165.94;5069768;28;20087;-72
2023/04/13 08:55:33;;;;;;;2.40;1.58;;;;;;;9.73;69.19;98159.72;5069919;28;20063;-72
2023/04/13 08:58:03;;;;;;;3.10;1.70;;;;;;;9.72;69.77;98155.38;5069368;28;20041;-72
2023/04/13 09:00:30;;;;;;;2.78;1.80;;;;;;;8.68;69.24;97991.59;5069094;28;20099;-72
2023/04/13 09:03:02;;;;;;;3.00;1.70;;;;;;;9.69;69.59;98155.59;5069080;28;20051;-72
2023/04/13 09:05:30;;;;;;;2.72;1.70;;;;;;;9.68;69.02;98152.09;5069540;28;20285;-72
2023/04/13 09:08:03;;;;;;;2.88;1.80;;;;;;;9.76;69.21;98178.00;5069087;28;20041;-72
2023/04/13 09:10:31;;;;;;;2.17;1.40;;;;;;;9.67;69.14;98163.63;5068506;28;20037;-72
2023/04/13 09:12:58;;;;;;;1.98;1.40;;;;;;;9.58;69.22;98162.47;5069015;28;20053;-72
2023/04/13 09:15:25;;;;;;;3.30;1.65;;;;;;;9.59;69.32;98161.53;5069231;28;20339;-72
2023/04/13 09:17:52;;;;;;;3.60;1.90;;;;;;;9.65;69.10;98168.19;5069033;28;20206;-72
2023/04/13 09:20:21;;;;;;;2.80;1.90;;;;;;;9.69;69.25;98159.06;5069298;28;20037;-72
2023/04/13 09:22:48;;;;;;;3.08;2.05;;;;;;;9.75;69.03;98149.88;5069443;28;20150;-72
2023/04/13 09:25:22;;;;;;;2.20;1.50;;;;;;;9.80;69.68;98148.56;5069104;28;20064;-73
2023/04/13 09:27:51;;;;;;;2.80;1.67;;;;;;;9.82;68.52;98151.97;5068769;28;20037;-71
2023/04/13 09:30:20;;;;;;;2.38;1.48;;;;;;;9.88;68.21;98154.16;5068756;28;20041;-71
2023/04/13 09:32:47;;;;;;;2.80;1.75;;;;;;;9.86;67.72;98152.59;5068677;28;20044;-72
2023/04/13 09:35:13;;;;;;;4.15;1.50;;;;;;;9.89;67.95;98150.56;5069137;28;20236;-72
2023/04/13 09:37:41;;;;;;;3.53;2.03;;;;;;;9.95;68.73;98146.63;5069061;28;20040;-72
2023/04/13 09:40:10;;;;;;;2.40;1.60;;;;;;;10.03;68.37;98161.97;5068480;28;20220;-72
2023/04/13 09:42:37;;;;;;;2.70;1.70;;;;;;;9.87;68.05;98130.47;5067939;28;20357;-72
2023/04/13 09:45:06;;;;;;;3.72;1.65;;;;;;;9.93;67.99;98141.47;5069064;28;20040;-72
2023/04/13 09:47:38;;;;;;;2.47;1.42;;;;;;;10.02;68.10;98154.97;5068930;28;20108;-72
2023/04/13 09:50:15;;;;;;;2.67;1.50;;;;;;;9.78;67.79;98126.69;5068978;28;20052;-72
2023/04/13 09:52:43;;;;;;;2.75;1.73;;;;;;;9.95;67.64;98154.56;5068600;28;20044;-72
2023/04/13 09:55:15;;;;;;;2.42;1.70;;;;;;;9.55;68.68;98087.78;5068719;28;20151;-72
2023/04/13 09:57:42;;;;;;;2.45;1.60;;;;;;;10.03;68.24;98160.16;5068913;28;20095;-72
2023/04/13 10:00:19;;;;;;;2.25;1.50;;;;;;;10.03;67.84;98165.47;5068175;28;20037;-72
2023/04/13 10:02:47;;;;;;;5.75;1.80;;;;;;;10.05;67.61;98160.91;5067549;28;20049;-72
2023/04/13 10:05:14;;;;;;;2.53;1.50;;;;;;;10.05;67.45;98160.91;5068407;28;20044;-72
2023/04/13 10:07:42;;;;;;;2.97;2.03;;;;;;;9.87;67.80;98123.38;5068179;28;20045;-72
2023/04/13 10:10:10;;;;;;;2.75;1.88;;;;;;;10.14;67.33;98159.41;5067921;28;20049;-72
2023/04/13 10:12:41;;;;;;;2.28;1.50;;;;;;;10.12;66.80;98151.56;5067764;28;20108;-72
2023/04/13 10:15:18;;;;;;;2.80;1.80;;;;;;;9.97;67.11;98107.69;5068461;28;20040;-72
2023/04/13 10:17:55;;;;;;;2.45;1.70;;;;;;;10.23;67.86;98140.19;5068020;28;20305;-72
2023/04/13 10:20:23;;;;;;;2.38;1.48;;;;;;;10.30;67.36;98137.94;5067891;28;20040;-72
2023/04/13 10:22:53;;;;;;;2.83;1.90;;;;;;;10.36;67.07;98132.19;5067607;28;20111;-72
2023/04/13 10:25:20;;;;;;;3.13;1.70;;;;;;;10.39;66.82;98134.63;5067223;28;20079;-72
2023/04/13 10:27:57;;;;;;;2.30;1.50;;;;;;;9.93;67.49;98056.75;5067354;28;20037;-72
2023/04/13 10:30:26;;;;;;;2.38;1.60;;;;;;;10.43;66.69;98149.31;5067570;28;20111;-72
2023/04/13 10:33:04;;;;;;;3.25;2.40;;;;;;;10.44;67.15;98148.38;5068210;28;20112;-72
2023/04/13 10:35:34;;;;;;;3.15;1.85;;;;;;;10.25;66.81;98120.59;5067780;28;20242;-71
2023/04/13 10:38:00;;;;;;;2.90;2.05;;;;;;;10.21;66.77;98107.69;5067261;28;20071;-71
2023/04/13 10:40:27;;;;;;;3.65;2.00;;;;;;;10.37;66.46;98141.84;5067223;28;20076;-71
2023/04/13 10:42:54;;;;;;;2.65;1.58;;;;;;;10.25;66.46;98140.94;5066865;28;20119;-72
2023/04/13 10:45:22;;;;;;;2.35;1.70;;;;;;;10.18;66.28;98129.09;5067305;28;20052;-71
2023/04/13 10:47:51;;;;;;;2.53;1.63;;;;;;;10.12;66.10;98140.97;5067189;28;20045;-71
2023/04/13 10:50:21;;;;;;;2.88;2.03;;;;;;;10.09;66.31;98133.25;5067379;28;20087;-71
2023/04/13 10:52:59;;;;;;;3.03;1.90;;;;;;;10.10;66.75;98139.41;5067514;28;20072;-71
2023/04/13 10:55:27;;;;;;;2.50;1.80;;;;;;;10.12;66.39;98134.84;5067149;28;20095;-71
2023/04/13 10:57:55;;;;;;;2.55;1.52;;;;;;;9.99;66.34;98134.03;5067398;28;20075;-71
2023/04/13 11:00:22;;;;;;;2.58;1.85;;;;;;;9.98;66.38;98135.84;5067358;28;20048;-71
2023/04/13 11:02:53;;;;;;;3.20;2.05;;;;;;;10.00;66.47;98135.72;5067261;28;20304;-72
2023/04/13 11:05:21;;;;;;;3.10;2.05;;;;;;;9.63;66.63;98069.56;5066221;28;20110;-71
2023/04/13 11:07:48;;;;;;;2.47;1.70;;;;;;;9.98;66.38;98129.69;5066993;28;20293;-71
2023/04/13 11:10:16;;;;;;;2.97;1.70;;;;;;;9.83;66.52;98099.88;5067202;28;20320;-72
2023/04/13 11:12:50;;;;;;;3.35;1.90;;;;;;;9.93;66.74;98124.72;5067262;28;20033;-72
2023/04/13 11:15:21;;;;;;;2.58;1.65;;;;;;;9.94;66.65;98124.63;5066793;28;20041;-72
2023/04/13 11:17:54;;;;;;;2.95;1.90;;;;;;;9.98;67.09;98127.03;5066875;28;20059;-72
2023/04/13 11:20:31;;;;;;;4.18;2.22;;;;;;;10.01;66.67;98132.13;5066780;28;20107;-71
2023/04/13 11:22:58;;;;;;;2.47;1.73;;;;;;;9.98;66.11;98114.66;5066523;28;20036;-72
2023/04/13 11:25:25;;;;;;;2.90;1.90;;;;;;;10.00;66.53;98107.44;5066450;28;20047;-72
2023/04/13 11:27:56;;;;;;;2.65;1.67;;;;;;;9.98;66.55;98124.41;5066423;28;20045;-74
2023/04/13 11:30:23;;;;;;;2.30;1.60;;;;;;;9.94;66.33;98126.41;5066616;28;20047;-72
2023/04/13 11:32:52;;;;;;;2.90;1.98;;;;;;;9.89;66.10;98118.81;5066235;28;20228;-71
2023/04/13 11:35:21;;;;;;;3.20;2.78;;;;;;;9.87;66.16;98117.22;5066709;28;20036;-72
2023/04/13 11:37:51;;;;;;;2.58;1.88;;;;;;;9.62;66.55;98086.38;5066770;28;20049;-72
2023/04/13 11:40:21;;;;;;;3.60;1.90;;;;;;;8.22;66.43;97854.00;5066288;28;20032;-71